Lassen Volcanic Natl Park, California
Current Conditions -  °F | °C
As of 4:42 PM on Sunday 21 Dec 2014 (Local Time) from KRDD Reporting Station
Haze Haze  
Wind Chill: 55°   Ceiling: 300
Heat Index: 55°   Visibility: 2mi
Dew Point: 54°   Wind: 3mph
Humidity: 96%   Direction: 30°NNE
Pressure: 30.26"   Gusts: NA
Location:  40.5°N, 121.32°W
Report Text: KRDD 220042Z 03003KT 2SM BR BKN003 OVC007 13/12 A3026 RMK AO2 T01280122
Loading
Personal Weather Stations






























Interactive Weather Map New forecast layout! Learn more

10-Day Weather Forecast

Advertisements
Track Severe Weather on mobile